Back to Top

Language: 

My Weather Underground Personal Weather Station Historical Data with Graphs...

Delerius Weather Station Historical Data
 
Daily Summary for April 25, 2018 Units:  Metric    English   Both
« Previous Day
Next Day »
Daily Weekly Monthly Yearly Custom
  Current: High: Low: Average:
Temperature: 8.5 °C 12.9 °C 6.7 °C 9.4 °C
Dew Point: 4.9 °C 7.8 °C 4.9 °C 6.2 °C
Humidity: 78 % 95 % 63 % 81 %
Wind Speed: 14.5 km/h 33.8 km/h 6.4 km/h 17.7 km/h
Wind Gust: 22.5 km/h 54.7 km/h - -
Wind:WSW - - West
Pressure: 1008.4 hPa 1008.7 hPa 1006 hPa -
Precipitation: 0.76 mm      
Historical Graphs
 
 
Tabular Data for April 25, 2018
Time Temperature Dew Point Pressure Wind Wind Speed Wind Gust Humidity Rainfall Rate (Hourly) solar Conditions
00:04 7.6 °C 6.8 °C 1006 hPa West 9.7 km/h 12.9 km/h 95 % 0 mm 0 W/m2
00:09 7.6 °C 6.8 °C 1006 hPa West 9.7 km/h 16.1 km/h 95 % 0 mm 0 W/m2
00:14 7.6 °C 6.8 °C 1006 hPa WNW 9.7 km/h 14.5 km/h 95 % 0 mm 0 W/m2
00:19 7.5 °C 6.8 °C 1006 hPa West 9.7 km/h 17.7 km/h 95 % 0 mm 0 W/m2
00:24 7.6 °C 6.8 °C 1006 hPa WNW 12.9 km/h 19.3 km/h 95 % 0 mm 0 W/m2
00:29 7.6 °C 6.8 °C 1006.3 hPa WNW 12.9 km/h 22.5 km/h 95 % 0 mm 0 W/m2
00:34 7.5 °C 6.6 °C 1006.3 hPa WNW 16.1 km/h 25.7 km/h 94 % 0 mm 0 W/m2
00:39 7.4 °C 6.5 °C 1006.3 hPa WNW 11.3 km/h 19.3 km/h 94 % 0 mm 0 W/m2
00:44 7.4 °C 6.5 °C 1006.3 hPa WNW 17.7 km/h 25.7 km/h 94 % 0 mm 0 W/m2
00:49 7.3 °C 6.2 °C 1006.3 hPa WNW 16.1 km/h 25.7 km/h 93 % 0 mm 0 W/m2
00:54 7.2 °C 6.2 °C 1006.7 hPa WNW 14.5 km/h 19.3 km/h 93 % 0 mm 0 W/m2
00:59 7.1 °C 6.1 °C 1006.7 hPa WNW 12.9 km/h 19.3 km/h 93 % 0 mm 0 W/m2
01:04 7.1 °C 6.1 °C 1006.7 hPa WNW 8 km/h 11.3 km/h 93 % 0 mm 0 W/m2
01:09 7 °C 5.9 °C 1006.7 hPa West 9.7 km/h 16.1 km/h 93 % 0 mm 0 W/m2
01:15 7 °C 5.9 °C 1006.3 hPa WNW 11.3 km/h 17.7 km/h 93 % 0 mm 0 W/m2
01:20 6.9 °C 5.8 °C 1006.3 hPa WNW 12.9 km/h 20.9 km/h 93 % 0 mm 0 W/m2
01:25 6.9 °C 5.8 °C 1006.3 hPa West 14.5 km/h 19.3 km/h 93 % 0 mm 0 W/m2
01:30 6.8 °C 5.7 °C 1006.3 hPa West 12.9 km/h 19.3 km/h 93 % 0 mm 0 W/m2
01:35 6.8 °C 5.7 °C 1006.3 hPa WNW 17.7 km/h 29 km/h 93 % 0 mm 0 W/m2
01:40 6.7 °C 5.7 °C 1006.3 hPa WNW 20.9 km/h 30.6 km/h 93 % 0 mm 0 W/m2
01:41 6.7 °C 5.7 °C 1006.3 hPa WNW 19.3 km/h 30.6 km/h 93 % 0 mm 0 W/m2
01:46 6.8 °C 5.6 °C 1006.3 hPa West 22.5 km/h 37 km/h 92 % 0 mm 0 W/m2
01:51 6.9 °C 5.7 °C 1006.3 hPa WNW 16.1 km/h 20.9 km/h 92 % 0 mm 0 W/m2
01:56 6.8 °C 5.4 °C 1006.3 hPa WNW 14.5 km/h 19.3 km/h 91 % 0 mm 0 W/m2
02:01 6.8 °C 5.4 °C 1006.3 hPa WNW 16.1 km/h 25.7 km/h 91 % 0 mm 0 W/m2
02:06 6.7 °C 5.3 °C 1006.3 hPa West 14.5 km/h 20.9 km/h 91 % 0 mm 0 W/m2
02:11 6.7 °C 5.3 °C 1006.7 hPa West 14.5 km/h 19.3 km/h 91 % 0 mm 0 W/m2
02:16 6.8 °C 5.4 °C 1006.3 hPa WNW 9.7 km/h 17.7 km/h 91 % 0 mm 0 W/m2
02:21 6.8 °C 5.4 °C 1006.3 hPa WNW 11.3 km/h 16.1 km/h 91 % 0 mm 0 W/m2
02:26 6.8 °C 5.4 °C 1006.3 hPa WNW 11.3 km/h 16.1 km/h 91 % 0 mm 0 W/m2
02:31 6.8 °C 5.4 °C 1006.3 hPa WNW 9.7 km/h 12.9 km/h 91 % 0 mm 0 W/m2
02:36 6.8 °C 5.6 °C 1006.3 hPa WNW 9.7 km/h 17.7 km/h 92 % 0 mm 0 W/m2
02:41 6.8 °C 5.6 °C 1006.3 hPa West 8 km/h 12.9 km/h 92 % 0 mm 0 W/m2
02:46 6.8 °C 5.6 °C 1006.3 hPa WNW 9.7 km/h 16.1 km/h 92 % 0 mm 0 W/m2
02:51 6.8 °C 5.6 °C 1006.3 hPa WNW 8 km/h 14.5 km/h 92 % 0 mm 0 W/m2
02:56 6.7 °C 5.5 °C 1006.3 hPa West 8 km/h 11.3 km/h 92 % 0 mm 0 W/m2
03:01 6.8 °C 5.7 °C 1006.3 hPa West 11.3 km/h 19.3 km/h 93 % 0 mm 0 W/m2
03:06 6.9 °C 5.8 °C 1006.3 hPa West 14.5 km/h 19.3 km/h 93 % 0 mm 0 W/m2
03:11 7.1 °C 6.1 °C 1006.3 hPa West 14.5 km/h 20.9 km/h 93 % 0 mm 0 W/m2
03:13 7.2 °C 6.2 °C 1006.3 hPa West 11.3 km/h 19.3 km/h 93 % 0 mm 0 W/m2
03:18 7.3 °C 6.2 °C 1006.3 hPa West 11.3 km/h 19.3 km/h 93 % 0 mm 0 W/m2
03:23 7.3 °C 6.2 °C 1006.3 hPa West 14.5 km/h 22.5 km/h 93 % 0 mm 0 W/m2
03:28 7.4 °C 6.2 °C 1006.3 hPa West 17.7 km/h 25.7 km/h 92 % 0 mm 0 W/m2
03:33 7.4 °C 6.2 °C 1006.3 hPa West 17.7 km/h 33.8 km/h 92 % 0 mm 0 W/m2
03:38 7.4 °C 6.2 °C 1006 hPa West 17.7 km/h 30.6 km/h 92 % 0 mm 0 W/m2
03:43 7.4 °C 6.2 °C 1006 hPa West 16.1 km/h 22.5 km/h 92 % 0 mm 0 W/m2
03:48 7.4 °C 6 °C 1006 hPa West 17.7 km/h 25.7 km/h 91 % 0 mm 0 W/m2
03:53 7.5 °C 6.1 °C 1006 hPa West 19.3 km/h 24.1 km/h 91 % 0 mm 0 W/m2
03:58 7.5 °C 6.1 °C 1006 hPa West 16.1 km/h 24.1 km/h 91 % 0 mm 0 W/m2
04:03 7.5 °C 6.1 °C 1006 hPa West 22.5 km/h 37 km/h 91 % 0 mm 0 W/m2
04:08 7.6 °C 6.4 °C 1006 hPa West 20.9 km/h 35.4 km/h 92 % 0 mm 0 W/m2
04:13 7.6 °C 6.2 °C 1006 hPa West 24.1 km/h 38.6 km/h 91 % 0 mm 0 W/m2
04:18 7.6 °C 6.4 °C 1006 hPa West 19.3 km/h 29 km/h 92 % 0 mm 0 W/m2
04:24 7.6 °C 6.4 °C 1006 hPa West 19.3 km/h 32.2 km/h 92 % 0 mm 0 W/m2
04:29 7.7 °C 6.5 °C 1006.3 hPa West 19.3 km/h 33.8 km/h 92 % 0 mm 0 W/m2
04:34 7.7 °C 6.5 °C 1006.3 hPa West 20.9 km/h 33.8 km/h 92 % 0 mm 0 W/m2
04:39 7.8 °C 6.6 °C 1006.3 hPa West 19.3 km/h 33.8 km/h 92 % 0 mm 0 W/m2
04:43 7.8 °C 6.6 °C 1006.3 hPa West 22.5 km/h 37 km/h 92 % 0 mm 0 W/m2
04:49 7.9 °C 6.5 °C 1006.3 hPa West 20.9 km/h 33.8 km/h 91 % 0 mm 0 W/m2
04:54 7.9 °C 6.5 °C 1006.7 hPa West 20.9 km/h 35.4 km/h 91 % 0 mm 0 W/m2
04:58 7.9 °C 6.5 °C 1006.7 hPa West 22.5 km/h 35.4 km/h 91 % 0 mm 0 W/m2
05:04 7.9 °C 6.5 °C 1006.7 hPa West 16.1 km/h 25.7 km/h 91 % 0 mm 0 W/m2
05:09 7.9 °C 6.5 °C 1006.7 hPa WNW 19.3 km/h 25.7 km/h 91 % 0 mm 0 W/m2
05:14 7.9 °C 6.5 °C 1006.7 hPa WNW 17.7 km/h 29 km/h 91 % 0 mm 0 W/m2
05:19 7.8 °C 6.4 °C 1006.7 hPa WNW 19.3 km/h 33.8 km/h 91 % 0 mm 0 W/m2
05:24 7.8 °C 6.3 °C 1006.7 hPa West 24.1 km/h 37 km/h 90 % 0 mm 0 W/m2
05:29 7.9 °C 6.3 °C 1006.7 hPa WNW 17.7 km/h 30.6 km/h 90 % 0 mm 0 W/m2
05:34 7.9 °C 6.3 °C 1006.7 hPa West 22.5 km/h 35.4 km/h 90 % 0 mm 0 W/m2
05:39 7.9 °C 6.3 °C 1007 hPa West 19.3 km/h 30.6 km/h 90 % 0 mm 0 W/m2
05:44 7.8 °C 6.3 °C 1007 hPa WNW 17.7 km/h 24.1 km/h 90 % 0 mm 0 W/m2
05:49 7.8 °C 6.3 °C 1007 hPa West 19.3 km/h 30.6 km/h 90 % 0 mm 5 W/m2
05:54 7.7 °C 6.2 °C 1007 hPa West 16.1 km/h 29 km/h 90 % 0 mm 9 W/m2
05:59 7.6 °C 6.1 °C 1007 hPa WNW 16.1 km/h 29 km/h 90 % 0 mm 12 W/m2
06:04 7.6 °C 6.2 °C 1007 hPa West 16.1 km/h 25.7 km/h 91 % 0.25 mm 35 W/m2
06:09 7.5 °C 6.1 °C 1007 hPa WNW 17.7 km/h 25.7 km/h 91 % 0.25 mm 37 W/m2
06:14 7.6 °C 6.2 °C 1007 hPa WNW 16.1 km/h 24.1 km/h 91 % 0.25 mm 25 W/m2
06:19 7.6 °C 6.2 °C 1007 hPa WNW 16.1 km/h 22.5 km/h 91 % 0.25 mm 21 W/m2
06:24 7.6 °C 6.1 °C 1007 hPa WNW 16.1 km/h 24.1 km/h 90 % 0.25 mm 23 W/m2
06:29 7.5 °C 5.9 °C 1007 hPa WNW 16.1 km/h 24.1 km/h 90 % 0.25 mm 28 W/m2
06:34 7.5 °C 5.9 °C 1007 hPa WNW 12.9 km/h 24.1 km/h 90 % 0.25 mm 83 W/m2
06:39 7.5 °C 5.9 °C 1007.3 hPa WNW 11.3 km/h 17.7 km/h 90 % 0.25 mm 37 W/m2
06:44 7.5 °C 5.9 °C 1007.3 hPa WNW 9.7 km/h 14.5 km/h 90 % 0.25 mm 39 W/m2
06:49 7.5 °C 5.9 °C 1007.3 hPa West 9.7 km/h 16.1 km/h 90 % 0.25 mm 46 W/m2
06:54 7.6 °C 6.1 °C 1007.3 hPa WNW 8 km/h 16.1 km/h 90 % 0.25 mm 70 W/m2
06:59 7.6 °C 6.1 °C 1007.3 hPa WNW 9.7 km/h 16.1 km/h 90 % 0.25 mm 72 W/m2
07:04 7.7 °C 6.2 °C 1007.3 hPa West 12.9 km/h 22.5 km/h 90 % 0 mm 65 W/m2
07:09 7.8 °C 6.3 °C 1007.3 hPa WNW 12.9 km/h 20.9 km/h 90 % 0 mm 84 W/m2
07:14 7.9 °C 6.2 °C 1007.3 hPa West 16.1 km/h 25.7 km/h 89 % 0 mm 123 W/m2
07:19 8.1 °C 6.4 °C 1007.3 hPa WNW 19.3 km/h 29 km/h 89 % 0 mm 144 W/m2
07:20 8.1 °C 6.4 °C 1007.3 hPa WNW 19.3 km/h 29 km/h 89 % 0 mm 160 W/m2
07:25 8.2 °C 6.3 °C 1007.7 hPa WNW 17.7 km/h 30.6 km/h 88 % 0 mm 128 W/m2
07:30 8.3 °C 6.4 °C 1007.7 hPa WNW 17.7 km/h 24.1 km/h 88 % 0 mm 167 W/m2
07:35 8.4 °C 6.3 °C 1007.7 hPa West 22.5 km/h 32.2 km/h 87 % 0 mm 234 W/m2
07:40 8.6 °C 6.4 °C 1007.7 hPa West 20.9 km/h 33.8 km/h 86 % 0 mm 79 W/m2
07:45 8.6 °C 6.4 °C 1007.7 hPa West 17.7 km/h 33.8 km/h 86 % 0 mm 163 W/m2
07:50 8.6 °C 6.4 °C 1007.7 hPa West 16.1 km/h 29 km/h 86 % 0 mm 214 W/m2
07:55 8.6 °C 6.4 °C 1007.7 hPa West 19.3 km/h 30.6 km/h 86 % 0 mm 255 W/m2
08:00 8.8 °C 6.6 °C 1007.7 hPa West 16.1 km/h 24.1 km/h 86 % 0 mm 415 W/m2
08:05 9.2 °C 7 °C 1007.7 hPa WNW 14.5 km/h 24.1 km/h 86 % 0 mm 142 W/m2
08:10 9.2 °C 6.6 °C 1007.7 hPa West 17.7 km/h 24.1 km/h 84 % 0 mm 162 W/m2
08:15 9.2 °C 6.4 °C 1008 hPa West 16.1 km/h 22.5 km/h 83 % 0 mm 385 W/m2
08:20 9.3 °C 6.7 °C 1008 hPa West 14.5 km/h 29 km/h 84 % 0 mm 439 W/m2
08:25 9.6 °C 6.8 °C 1008 hPa WNW 14.5 km/h 24.1 km/h 83 % 0 mm 246 W/m2
08:30 9.6 °C 6.7 °C 1008 hPa West 14.5 km/h 22.5 km/h 82 % 0 mm 109 W/m2
08:35 9.4 °C 6.5 °C 1008 hPa West 16.1 km/h 30.6 km/h 82 % 0 mm 404 W/m2
08:40 9.4 °C 6.7 °C 1008 hPa West 12.9 km/h 20.9 km/h 83 % 0 mm 225 W/m2
08:45 9.4 °C 6.5 °C 1008 hPa West 20.9 km/h 30.6 km/h 82 % 0 mm 450 W/m2
08:50 9.5 °C 6.4 °C 1008 hPa West 20.9 km/h 35.4 km/h 81 % 0 mm 475 W/m2
08:55 9.8 °C 6.7 °C 1008 hPa West 24.1 km/h 35.4 km/h 81 % 0 mm 608 W/m2
09:00 10 °C 6.7 °C 1008 hPa West 17.7 km/h 25.7 km/h 80 % 0 mm 385 W/m2
09:05 9.9 °C 6.4 °C 1008 hPa West 20.9 km/h 30.6 km/h 79 % 0 mm 253 W/m2
09:10 9.7 °C 6.2 °C 1008 hPa WSW 24.1 km/h 38.6 km/h 79 % 0 mm 174 W/m2
09:15 9.7 °C 6.6 °C 1008 hPa West 16.1 km/h 25.7 km/h 81 % 0 mm 497 W/m2
09:20 10 °C 6.9 °C 1008 hPa WSW 12.9 km/h 25.7 km/h 81 % 0 mm 580 W/m2
09:25 10.2 °C 6.7 °C 1008.4 hPa West 24.1 km/h 38.6 km/h 79 % 0 mm 374 W/m2
09:30 10 °C 6.3 °C 1008.4 hPa WSW 19.3 km/h 32.2 km/h 78 % 0 mm 457 W/m2
09:35 10 °C 6.7 °C 1008.4 hPa West 19.3 km/h 32.2 km/h 80 % 0 mm 566 W/m2
09:40 10.1 °C 6.6 °C 1008.4 hPa WSW 22.5 km/h 33.8 km/h 79 % 0 mm 652 W/m2
09:45 10.1 °C 6.4 °C 1008.4 hPa West 25.7 km/h 40.2 km/h 78 % 0 mm 606 W/m2
09:50 9.9 °C 6.6 °C 1008.4 hPa WSW 24.1 km/h 33.8 km/h 80 % 0 mm 209 W/m2
09:55 9.3 °C 6.4 °C 1008.4 hPa West 22.5 km/h 33.8 km/h 82 % 0 mm 260 W/m2
10:00 9.1 °C 6.7 °C 1008.4 hPa West 19.3 km/h 29 km/h 85 % 0 mm 374 W/m2
10:05 9.1 °C 6.9 °C 1008 hPa West 16.1 km/h 25.7 km/h 86 % 0 mm 353 W/m2
10:06 9.1 °C 6.9 °C 1008 hPa WSW 16.1 km/h 25.7 km/h 86 % 0 mm 587 W/m2
10:11 9.4 °C 7.5 °C 1008 hPa WSW 16.1 km/h 25.7 km/h 88 % 0 mm 615 W/m2
10:16 9.8 °C 7.7 °C 1008 hPa West 14.5 km/h 24.1 km/h 87 % 0 mm 659 W/m2
10:21 10.2 °C 7.8 °C 1008.4 hPa West 17.7 km/h 25.7 km/h 85 % 0 mm 694 W/m2
10:26 10.3 °C 7.2 °C 1008.4 hPa WSW 29 km/h 41.8 km/h 81 % 0 mm 656 W/m2
10:31 10.5 °C 7.2 °C 1008.7 hPa West 27.4 km/h 41.8 km/h 80 % 0 mm 770 W/m2
10:36 10.6 °C 7.3 °C 1008.7 hPa WSW 22.5 km/h 33.8 km/h 80 % 0 mm 301 W/m2
10:41 10.6 °C 7.1 °C 1008.4 hPa West 22.5 km/h 40.2 km/h 79 % 0 mm 596 W/m2
10:46 10.7 °C 7.2 °C 1008.4 hPa WSW 19.3 km/h 29 km/h 79 % 0 mm 765 W/m2
10:51 11 °C 7.7 °C 1008.4 hPa WSW 14.5 km/h 24.1 km/h 80 % 0 mm 930 W/m2
10:56 11.3 °C 7.2 °C 1008.4 hPa West 22.5 km/h 33.8 km/h 76 % 0 mm 213 W/m2
11:01 11.4 °C 7.1 °C 1008 hPa WSW 24.1 km/h 35.4 km/h 75 % 0 mm 770 W/m2
11:06 11.5 °C 6.8 °C 1008 hPa West 20.9 km/h 37 km/h 73 % 0 mm 578 W/m2
11:11 11.4 °C 6.7 °C 1008.4 hPa West 19.3 km/h 30.6 km/h 73 % 0 mm 636 W/m2
11:16 11.5 °C 6.8 °C 1008 hPa WSW 24.1 km/h 43.5 km/h 73 % 0 mm 680 W/m2
11:21 11.6 °C 6.9 °C 1008.4 hPa West 20.9 km/h 35.4 km/h 73 % 0 mm 693 W/m2
11:26 11.8 °C 6.7 °C 1008.4 hPa West 25.7 km/h 38.6 km/h 71 % 0 mm 747 W/m2
11:31 11.8 °C 6.5 °C 1008.4 hPa WSW 24.1 km/h 38.6 km/h 70 % 0 mm 570 W/m2
11:36 11.3 °C 6.4 °C 1008.4 hPa WSW 22.5 km/h 35.4 km/h 72 % 0 mm 438 W/m2
11:41 10.9 °C 6.2 °C 1008.4 hPa West 17.7 km/h 32.2 km/h 73 % 0 mm 510 W/m2
11:46 10.8 °C 6.2 °C 1008.4 hPa West 19.3 km/h 30.6 km/h 73 % 0 mm 541 W/m2
11:52 11 °C 6.7 °C 1008.4 hPa West 16.1 km/h 30.6 km/h 75 % 0 mm 455 W/m2
11:57 11.3 °C 6.6 °C 1008 hPa West 24.1 km/h 41.8 km/h 73 % 0 mm 635 W/m2
12:02 11.6 °C 6.3 °C 1008 hPa West 22.5 km/h 33.8 km/h 70 % 0 mm 387 W/m2
12:07 11.6 °C 5.4 °C 1008 hPa West 24.1 km/h 37 km/h 66 % 0 mm 316 W/m2
12:12 11.3 °C 5.6 °C 1008 hPa WSW 22.5 km/h 33.8 km/h 68 % 0 mm 218 W/m2
12:17 10.9 °C 5.4 °C 1008 hPa WSW 16.1 km/h 25.7 km/h 69 % 0 mm 229 W/m2
12:22 10.8 °C 5.6 °C 1008 hPa WSW 17.7 km/h 25.7 km/h 70 % 0 mm 362 W/m2
12:27 11.1 °C 6.2 °C 1007.7 hPa West 17.7 km/h 25.7 km/h 72 % 0 mm 656 W/m2
12:32 11.7 °C 6.6 °C 1007.7 hPa West 19.3 km/h 30.6 km/h 71 % 0 mm 615 W/m2
12:37 12.1 °C 6.6 °C 1007.7 hPa WSW 20.9 km/h 33.8 km/h 69 % 0 mm 489 W/m2
12:42 12.3 °C 6.3 °C 1007.7 hPa WSW 22.5 km/h 33.8 km/h 67 % 0 mm 506 W/m2
12:47 12.3 °C 6.3 °C 1008 hPa WSW 24.1 km/h 37 km/h 67 % 0 mm 438 W/m2
12:52 12.2 °C 6.4 °C 1008 hPa WSW 20.9 km/h 33.8 km/h 68 % 0 mm 438 W/m2
12:57 11.7 °C 6.4 °C 1008 hPa SW 22.5 km/h 32.2 km/h 70 % 0 mm 385 W/m2
13:02 11.3 °C 6 °C 1008 hPa SW 20.9 km/h 33.8 km/h 70 % 0 mm 369 W/m2
13:07 11.1 °C 6.1 °C 1007.7 hPa SW 17.7 km/h 29 km/h 71 % 0 mm 715 W/m2
13:12 11.4 °C 6.7 °C 1008 hPa WSW 16.1 km/h 24.1 km/h 73 % 0 mm 715 W/m2
13:17 11.8 °C 7.1 °C 1008 hPa WSW 17.7 km/h 30.6 km/h 73 % 0 mm 598 W/m2
13:22 11.9 °C 6.8 °C 1008 hPa SW 20.9 km/h 30.6 km/h 71 % 0 mm 510 W/m2
13:27 11.7 °C 6 °C 1008 hPa WSW 22.5 km/h 38.6 km/h 68 % 0 mm 459 W/m2
13:32 11.8 °C 6.5 °C 1008 hPa WSW 17.7 km/h 30.6 km/h 70 % 0 mm 457 W/m2
13:37 11.9 °C 6.4 °C 1007.7 hPa SW 19.3 km/h 32.2 km/h 69 % 0 mm 469 W/m2
13:42 11.8 °C 6.1 °C 1008 hPa WSW 22.5 km/h 41.8 km/h 68 % 0 mm 304 W/m2
13:47 11.3 °C 5.4 °C 1008 hPa WSW 29 km/h 43.5 km/h 67 % 0 mm 251 W/m2
13:52 10.9 °C 5.4 °C 1007.7 hPa West 20.9 km/h 32.2 km/h 69 % 0 mm 283 W/m2
13:57 10.8 °C 5.6 °C 1007.7 hPa West 19.3 km/h 25.7 km/h 70 % 0 mm 406 W/m2
14:02 11.4 °C 6.6 °C 1007.7 hPa West 16.1 km/h 29 km/h 72 % 0 mm 1058 W/m2
14:07 12.2 °C 6.7 °C 1007.7 hPa West 16.1 km/h 25.7 km/h 69 % 0 mm 724 W/m2
14:12 12.6 °C 6.4 °C 1007.7 hPa West 27.4 km/h 40.2 km/h 66 % 0 mm 499 W/m2
14:17 12.5 °C 5.9 °C 1007.7 hPa West 32.2 km/h 45.1 km/h 64 % 0 mm 364 W/m2
14:22 12.1 °C 5.3 °C 1008 hPa WSW 33.8 km/h 54.7 km/h 63 % 0 mm 255 W/m2
14:27 11.6 °C 5.4 °C 1007.7 hPa West 22.5 km/h 37 km/h 66 % 0 mm 216 W/m2
14:32 11.1 °C 5.6 °C 1008 hPa WSW 19.3 km/h 29 km/h 69 % 0 mm 221 W/m2
14:37 10.8 °C 5.3 °C 1008 hPa WSW 20.9 km/h 33.8 km/h 69 % 0 mm 220 W/m2
14:42 10.8 °C 5.6 °C 1008 hPa WSW 24.1 km/h 38.6 km/h 70 % 0 mm 167 W/m2
14:47 10.4 °C 5.4 °C 1008 hPa WSW 24.1 km/h 41.8 km/h 71 % 0 mm 171 W/m2
14:52 10.2 °C 5.6 °C 1008 hPa WSW 19.3 km/h 25.7 km/h 73 % 0 mm 264 W/m2
14:57 10.2 °C 5.8 °C 1008 hPa WSW 22.5 km/h 33.8 km/h 74 % 0 mm 408 W/m2
15:02 10.3 °C 5.9 °C 1008 hPa WSW 22.5 km/h 33.8 km/h 74 % 0 mm 388 W/m2
15:07 10.4 °C 5.8 °C 1007.7 hPa WSW 20.9 km/h 35.4 km/h 73 % 0 mm 399 W/m2
15:12 11 °C 6.3 °C 1007.7 hPa WSW 19.3 km/h 33.8 km/h 73 % 0 mm 633 W/m2
15:17 11.4 °C 6.1 °C 1007.7 hPa WSW 22.5 km/h 32.2 km/h 70 % 0 mm 749 W/m2
15:22 11.9 °C 6.8 °C 1007.7 hPa WSW 17.7 km/h 29 km/h 71 % 0 mm 552 W/m2
15:27 12.1 °C 6.6 °C 1007.7 hPa WSW 19.3 km/h 32.2 km/h 69 % 0 mm 821 W/m2
15:32 12.5 °C 6.8 °C 1007.3 hPa West 20.9 km/h 32.2 km/h 68 % 0 mm 759 W/m2
15:37 12.8 °C 6.4 °C 1007.3 hPa WSW 24.1 km/h 35.4 km/h 65 % 0 mm 735 W/m2
15:43 12.9 °C 6 °C 1007.3 hPa WSW 24.1 km/h 37 km/h 63 % 0 mm 162 W/m2
15:48 12.9 °C 6 °C 1007.3 hPa West 27.4 km/h 41.8 km/h 63 % 0 mm 443 W/m2
15:53 12.8 °C 6.2 °C 1007.7 hPa WSW 25.7 km/h 43.5 km/h 64 % 0 mm 387 W/m2
15:58 12.2 °C 5.6 °C 1007.7 hPa WSW 24.1 km/h 41.8 km/h 64 % 0 mm 185 W/m2
16:03 11.7 °C 5.6 °C 1007.7 hPa WSW 22.5 km/h 37 km/h 66 % 0 mm 171 W/m2
16:08 11.3 °C 5.4 °C 1007.3 hPa WSW 19.3 km/h 32.2 km/h 67 % 0 mm 253 W/m2
16:13 11.2 °C 5.5 °C 1007.3 hPa West 22.5 km/h 32.2 km/h 68 % 0 mm 220 W/m2
16:18 11 °C 5.3 °C 1007.3 hPa WSW 22.5 km/h 38.6 km/h 68 % 0 mm 197 W/m2
16:23 10.9 °C 5.8 °C 1007.3 hPa West 22.5 km/h 30.6 km/h 71 % 0 mm 192 W/m2
16:28 11.1 °C 6.2 °C 1007.3 hPa West 22.5 km/h 37 km/h 72 % 0 mm 464 W/m2
16:33 11.1 °C 6.4 °C 1007.3 hPa West 16.1 km/h 25.7 km/h 73 % 0 mm 608 W/m2
16:38 11.5 °C 6.4 °C 1007.3 hPa West 22.5 km/h 38.6 km/h 71 % 0 mm 700 W/m2
16:43 11.9 °C 5.9 °C 1007.3 hPa West 20.9 km/h 33.8 km/h 67 % 0 mm 631 W/m2
16:48 12.1 °C 5.9 °C 1007.3 hPa West 20.9 km/h 30.6 km/h 66 % 0 mm 566 W/m2
16:53 12.3 °C 5.9 °C 1007.3 hPa West 20.9 km/h 38.6 km/h 65 % 0 mm 529 W/m2
16:58 12.4 °C 5.8 °C 1007.3 hPa WSW 22.5 km/h 37 km/h 64 % 0 mm 503 W/m2
17:03 12.6 °C 5.9 °C 1007.3 hPa West 22.5 km/h 35.4 km/h 64 % 0 mm 503 W/m2
17:08 12.6 °C 6.2 °C 1007.3 hPa West 25.7 km/h 38.6 km/h 65 % 0 mm 496 W/m2
17:13 12.5 °C 6.3 °C 1007.3 hPa West 19.3 km/h 32.2 km/h 66 % 0 mm 111 W/m2
17:18 12 °C 5.8 °C 1007.3 hPa West 25.7 km/h 40.2 km/h 66 % 0 mm 123 W/m2
17:23 11.5 °C 5.6 °C 1007.7 hPa WSW 24.1 km/h 43.5 km/h 67 % 0 mm 130 W/m2
17:28 10.7 °C 5.2 °C 1007.3 hPa WSW 20.9 km/h 33.8 km/h 69 % 0 mm 118 W/m2
17:33 10.2 °C 5.6 °C 1007 hPa WSW 17.7 km/h 30.6 km/h 73 % 0 mm 130 W/m2
17:38 10.1 °C 6.1 °C 1007 hPa SW 16.1 km/h 22.5 km/h 76 % 0 mm 482 W/m2
17:40 10.1 °C 6.2 °C 1007 hPa WSW 16.1 km/h 25.7 km/h 77 % 0 mm 494 W/m2
17:45 10.3 °C 5.9 °C 1007 hPa WSW 17.7 km/h 25.7 km/h 74 % 0 mm 506 W/m2
17:50 10.8 °C 6.3 °C 1007 hPa WSW 11.3 km/h 17.7 km/h 74 % 0 mm 448 W/m2
17:55 11.3 °C 6.6 °C 1007 hPa West 14.5 km/h 33.8 km/h 73 % 0 mm 374 W/m2
18:00 11.7 °C 6.4 °C 1007 hPa West 19.3 km/h 33.8 km/h 70 % 0 mm 323 W/m2
18:05 11.8 °C 6.1 °C 1007 hPa West 25.7 km/h 37 km/h 68 % 0 mm 292 W/m2
18:10 11.7 °C 6 °C 1007 hPa West 20.9 km/h 33.8 km/h 68 % 0 mm 207 W/m2
18:15 11.4 °C 5.9 °C 1007 hPa West 14.5 km/h 22.5 km/h 69 % 0 mm 39 W/m2
18:20 11.2 °C 6.1 °C 1007.3 hPa West 12.9 km/h 22.5 km/h 71 % 0 mm 33 W/m2
18:25 10.9 °C 6.1 °C 1007.3 hPa WSW 17.7 km/h 29 km/h 72 % 0 mm 39 W/m2
18:30 10.8 °C 6.2 °C 1007.3 hPa WSW 16.1 km/h 25.7 km/h 73 % 0 mm 25 W/m2
18:35 10.4 °C 6.2 °C 1007.3 hPa WSW 22.5 km/h 37 km/h 75 % 0.25 mm 16 W/m2
18:40 9.7 °C 5.7 °C 1007.3 hPa West 22.5 km/h 38.6 km/h 76 % 0.25 mm 25 W/m2
18:45 9.3 °C 6 °C 1007.3 hPa West 12.9 km/h 20.9 km/h 80 % 0.51 mm 142 W/m2
18:50 9.1 °C 6.4 °C 1007.3 hPa WSW 12.9 km/h 16.1 km/h 83 % 0.51 mm 345 W/m2
18:55 9.1 °C 6.7 °C 1007.3 hPa WSW 11.3 km/h 17.7 km/h 85 % 0.51 mm 318 W/m2
19:00 9.3 °C 6.9 °C 1007.3 hPa WSW 12.9 km/h 19.3 km/h 85 % 0.51 mm 253 W/m2
19:05 9.5 °C 7.1 °C 1007.3 hPa West 11.3 km/h 16.1 km/h 85 % 0.51 mm 200 W/m2
19:10 9.7 °C 7.1 °C 1007.3 hPa West 11.3 km/h 19.3 km/h 84 % 0.51 mm 144 W/m2
19:15 9.8 °C 7.2 °C 1007.3 hPa West 9.7 km/h 14.5 km/h 84 % 0.51 mm 113 W/m2
19:20 9.8 °C 7.1 °C 1007.3 hPa WSW 14.5 km/h 20.9 km/h 83 % 0.51 mm 88 W/m2
19:25 9.8 °C 6.9 °C 1007.3 hPa West 11.3 km/h 16.1 km/h 82 % 0.51 mm 76 W/m2
19:30 9.7 °C 6.8 °C 1007.3 hPa West 11.3 km/h 19.3 km/h 82 % 0.51 mm 32 W/m2
19:36 9.6 °C 6.8 °C 1007.3 hPa West 9.7 km/h 14.5 km/h 83 % 0.51 mm 28 W/m2
19:41 9.4 °C 6.7 °C 1007.3 hPa West 9.7 km/h 14.5 km/h 83 % 0.51 mm 26 W/m2
19:46 9.3 °C 6.6 °C 1007.3 hPa West 9.7 km/h 19.3 km/h 83 % 0 mm 35 W/m2
19:51 9.2 °C 6.3 °C 1007.7 hPa West 12.9 km/h 19.3 km/h 82 % 0 mm 25 W/m2
19:56 9.2 °C 6.1 °C 1007.7 hPa West 17.7 km/h 30.6 km/h 81 % 0 mm 21 W/m2
20:01 9.2 °C 5.7 °C 1007.7 hPa West 17.7 km/h 32.2 km/h 79 % 0 mm 18 W/m2
20:06 9.2 °C 5.6 °C 1007.7 hPa West 12.9 km/h 20.9 km/h 78 % 0 mm 14 W/m2
20:11 9.2 °C 5.7 °C 1007.7 hPa West 6.4 km/h 12.9 km/h 79 % 0 mm 11 W/m2
20:16 9.2 °C 5.7 °C 1008 hPa West 8 km/h 17.7 km/h 79 % 0 mm 7 W/m2
20:21 9.2 °C 5.7 °C 1008 hPa West 9.7 km/h 19.3 km/h 79 % 0 mm 7 W/m2
20:26 9.1 °C 5.4 °C 1008 hPa West 14.5 km/h 20.9 km/h 78 % 0 mm 5 W/m2
20:31 9.1 °C 5.4 °C 1008 hPa West 11.3 km/h 19.3 km/h 78 % 0 mm 0 W/m2
20:36 9 °C 5.4 °C 1008.4 hPa West 8 km/h 14.5 km/h 78 % 0 mm 0 W/m2
20:41 8.9 °C 5.3 °C 1008.4 hPa West 9.7 km/h 14.5 km/h 78 % 0 mm 0 W/m2
20:46 8.9 °C 5.3 °C 1008.4 hPa West 14.5 km/h 24.1 km/h 78 % 0 mm 0 W/m2
20:51 8.9 °C 5.3 °C 1008.4 hPa West 12.9 km/h 20.9 km/h 78 % 0 mm 0 W/m2
20:56 8.9 °C 5.3 °C 1008.4 hPa West 16.1 km/h 25.7 km/h 78 % 0 mm 0 W/m2
21:01 8.8 °C 5.2 °C 1008.4 hPa West 14.5 km/h 20.9 km/h 78 % 0 mm 0 W/m2
21:06 8.7 °C 5.1 °C 1008.4 hPa West 11.3 km/h 19.3 km/h 78 % 0 mm 0 W/m2
21:11 8.6 °C 5 °C 1008.4 hPa West 16.1 km/h 25.7 km/h 78 % 0 mm 0 W/m2
21:16 8.6 °C 5 °C 1008.4 hPa West 20.9 km/h 30.6 km/h 78 % 0 mm 0 W/m2
21:21 8.5 °C 4.9 °C 1008.4 hPa WSW 14.5 km/h 22.5 km/h 78 % 0 mm 0 W/m2
Delerius-Weather
Compliments of Weather Underground - 2.25 mb

Data updates at regular intervals.